sensor_id;sensor_type;location;lat;lon;timestamp;P1;durP1;ratioP1;P2;durP2;ratioP2
63782;SDS011;49925;52.522;5.732;2022-12-29T02:55:28;14.00;;;4.18;;
63782;SDS011;49925;52.522;5.732;2022-12-29T03:00:36;9.02;;;3.80;;
63782;SDS011;49925;52.522;5.732;2022-12-29T03:03:24;15.05;;;3.78;;
63782;SDS011;49925;52.522;5.732;2022-12-29T03:06:30;9.52;;;3.53;;
63782;SDS011;49925;52.522;5.732;2022-12-29T03:15:53;15.07;;;3.50;;
63782;SDS011;49925;52.522;5.732;2022-12-29T07:01:59;30.00;;;4.25;;
63782;SDS011;49925;52.522;5.732;2022-12-29T07:04:28;28.00;;;3.08;;
63782;SDS011;49925;52.522;5.732;2022-12-29T07:06:55;31.50;;;4.07;;
63782;SDS011;49925;52.522;5.732;2022-12-29T07:09:22;30.45;;;2.95;;
63782;SDS011;49925;52.522;5.732;2022-12-29T08:03:49;52.08;;;3.50;;
63782;SDS011;49925;52.522;5.732;2022-12-29T08:06:22;32.85;;;4.60;;
63782;SDS011;49925;52.522;5.732;2022-12-29T08:08:49;40.15;;;3.90;;
63782;SDS011;49925;52.522;5.732;2022-12-29T08:11:16;34.80;;;3.03;;
63782;SDS011;49925;52.522;5.732;2022-12-29T08:13:44;27.33;;;3.90;;
63782;SDS011;49925;52.522;5.732;2022-12-29T08:16:11;28.90;;;3.45;;
63782;SDS011;49925;52.522;5.732;2022-12-29T08:18:38;32.70;;;3.75;;
63782;SDS011;49925;52.522;5.732;2022-12-29T08:21:05;31.40;;;3.25;;
63782;SDS011;49925;52.522;5.732;2022-12-29T08:23:32;31.00;;;3.15;;
63782;SDS011;49925;52.522;5.732;2022-12-29T08:26:00;24.70;;;3.00;;
63782;SDS011;49925;52.522;5.732;2022-12-29T08:30:57;18.98;;;3.00;;
63782;SDS011;49925;52.522;5.732;2022-12-29T08:33:26;41.05;;;3.03;;
63782;SDS011;49925;52.522;5.732;2022-12-29T08:36:00;25.35;;;3.20;;
63782;SDS011;49925;52.522;5.732;2022-12-29T08:55:51;32.03;;;5.13;;
63782;SDS011;49925;52.522;5.732;2022-12-29T08:58:30;40.95;;;4.15;;
63782;SDS011;49925;52.522;5.732;2022-12-29T09:00:57;24.27;;;3.55;;
63782;SDS011;49925;52.522;5.732;2022-12-29T09:03:25;35.58;;;3.95;;
63782;SDS011;49925;52.522;5.732;2022-12-29T09:06:12;34.60;;;4.38;;
63782;SDS011;49925;52.522;5.732;2022-12-29T09:08:42;25.90;;;4.95;;
63782;SDS011;49925;52.522;5.732;2022-12-29T09:11:10;45.05;;;4.18;;
63782;SDS011;49925;52.522;5.732;2022-12-29T09:13:46;33.30;;;3.20;;
63782;SDS011;49925;52.522;5.732;2022-12-29T09:50:50;27.50;;;4.00;;
63782;SDS011;49925;52.522;5.732;2022-12-29T09:53:35;27.15;;;3.47;;
63782;SDS011;49925;52.522;5.732;2022-12-29T09:56:08;29.17;;;3.80;;
63782;SDS011;49925;52.522;5.732;2022-12-29T09:58:50;26.52;;;3.85;;
63782;SDS011;49925;52.522;5.732;2022-12-29T10:01:51;44.58;;;4.57;;
63782;SDS011;49925;52.522;5.732;2022-12-29T10:04:31;28.00;;;3.78;;
63782;SDS011;49925;52.522;5.732;2022-12-29T10:07:08;28.30;;;3.42;;
63782;SDS011;49925;52.522;5.732;2022-12-29T10:13:19;27.98;;;4.00;;
63782;SDS011;49925;52.522;5.732;2022-12-29T10:16:36;31.15;;;3.85;;
63782;SDS011;49925;52.522;5.732;2022-12-29T10:25:20;25.52;;;3.90;;
63782;SDS011;49925;52.522;5.732;2022-12-29T10:27:56;24.70;;;4.30;;
63782;SDS011;49925;52.522;5.732;2022-12-29T10:30:26;38.97;;;4.15;;
63782;SDS011;49925;52.522;5.732;2022-12-29T10:32:55;33.67;;;4.28;;
63782;SDS011;49925;52.522;5.732;2022-12-29T10:35:26;22.77;;;3.63;;
63782;SDS011;49925;52.522;5.732;2022-12-29T10:43:56;30.83;;;4.03;;
63782;SDS011;49925;52.522;5.732;2022-12-29T10:46:28;34.83;;;4.03;;
63782;SDS011;49925;52.522;5.732;2022-12-29T10:48:59;31.52;;;5.25;;
63782;SDS011;49925;52.522;5.732;2022-12-29T10:51:30;24.73;;;4.18;;
63782;SDS011;49925;52.522;5.732;2022-12-29T10:54:18;27.60;;;4.55;;
63782;SDS011;49925;52.522;5.732;2022-12-29T10:56:53;29.25;;;4.65;;
63782;SDS011;49925;52.522;5.732;2022-12-29T10:59:29;31.40;;;4.45;;
63782;SDS011;49925;52.522;5.732;2022-12-29T11:07:59;44.72;;;4.57;;
63782;SDS011;49925;52.522;5.732;2022-12-29T11:13:12;30.92;;;4.97;;
63782;SDS011;49925;52.522;5.732;2022-12-29T11:15:45;38.13;;;5.05;;
63782;SDS011;49925;52.522;5.732;2022-12-29T11:20:44;43.75;;;4.88;;
63782;SDS011;49925;52.522;5.732;2022-12-29T11:23:22;49.10;;;6.10;;
63782;SDS011;49925;52.522;5.732;2022-12-29T11:29:02;41.90;;;4.90;;
63782;SDS011;49925;52.522;5.732;2022-12-29T11:31:55;45.95;;;5.95;;
63782;SDS011;49925;52.522;5.732;2022-12-29T11:37:01;56.80;;;5.65;;
63782;SDS011;49925;52.522;5.732;2022-12-29T11:42:38;46.00;;;5.07;;
63782;SDS011;49925;52.522;5.732;2022-12-29T11:45:31;47.75;;;5.30;;
63782;SDS011;49925;52.522;5.732;2022-12-29T11:48:09;45.97;;;6.20;;
63782;SDS011;49925;52.522;5.732;2022-12-29T11:50:52;43.80;;;5.38;;
63782;SDS011;49925;52.522;5.732;2022-12-29T11:56:08;51.58;;;5.90;;
63782;SDS011;49925;52.522;5.732;2022-12-29T11:58:41;46.85;;;4.63;;
63782;SDS011;49925;52.522;5.732;2022-12-29T12:04:10;40.08;;;5.75;;
63782;SDS011;49925;52.522;5.732;2022-12-29T12:06:56;46.38;;;5.18;;
63782;SDS011;49925;52.522;5.732;2022-12-29T12:09:29;62.15;;;6.28;;
63782;SDS011;49925;52.522;5.732;2022-12-29T12:12:01;35.30;;;4.28;;
63782;SDS011;49925;52.522;5.732;2022-12-29T12:14:34;50.15;;;4.75;;
63782;SDS011;49925;52.522;5.732;2022-12-29T12:17:16;48.13;;;5.30;;
63782;SDS011;49925;52.522;5.732;2022-12-29T12:20:41;51.28;;;5.82;;
63782;SDS011;49925;52.522;5.732;2022-12-29T12:23:29;42.35;;;4.60;;
63782;SDS011;49925;52.522;5.732;2022-12-29T12:26:15;61.55;;;4.78;;
63782;SDS011;49925;52.522;5.732;2022-12-29T12:28:55;55.38;;;5.15;;
63782;SDS011;49925;52.522;5.732;2022-12-29T12:34:38;53.33;;;5.53;;
63782;SDS011;49925;52.522;5.732;2022-12-29T12:52:33;31.10;;;4.05;;
63782;SDS011;49925;52.522;5.732;2022-12-29T12:58:57;34.97;;;4.60;;
63782;SDS011;49925;52.522;5.732;2022-12-29T13:05:03;31.48;;;4.40;;
63782;SDS011;49925;52.522;5.732;2022-12-29T13:07:56;54.38;;;5.05;;
63782;SDS011;49925;52.522;5.732;2022-12-29T13:10:55;38.47;;;3.90;;
63782;SDS011;49925;52.522;5.732;2022-12-29T13:19:51;28.05;;;3.63;;
63782;SDS011;49925;52.522;5.732;2022-12-29T13:23:11;36.95;;;3.00;;
63782;SDS011;49925;52.522;5.732;2022-12-29T13:28:38;21.80;;;3.45;;
63782;SDS011;49925;52.522;5.732;2022-12-29T13:31:42;21.27;;;3.28;;
63782;SDS011;49925;52.522;5.732;2022-12-29T13:34:45;19.40;;;2.88;;
63782;SDS011;49925;52.522;5.732;2022-12-29T13:37:26;20.83;;;3.80;;
63782;SDS011;49925;52.522;5.732;2022-12-29T13:39:55;21.38;;;2.92;;
63782;SDS011;49925;52.522;5.732;2022-12-29T13:42:26;31.27;;;3.00;;
63782;SDS011;49925;52.522;5.732;2022-12-29T13:44:55;19.10;;;2.97;;
63782;SDS011;49925;52.522;5.732;2022-12-29T13:47:39;31.50;;;3.83;;
63782;SDS011;49925;52.522;5.732;2022-12-29T13:50:15;25.02;;;3.13;;
63782;SDS011;49925;52.522;5.732;2022-12-29T13:55:58;37.95;;;4.78;;
63782;SDS011;49925;52.522;5.732;2022-12-29T13:58:46;35.92;;;4.25;;
63782;SDS011;49925;52.522;5.732;2022-12-29T14:04:23;53.58;;;4.57;;
63782;SDS011;49925;52.522;5.732;2022-12-29T14:12:38;35.13;;;4.32;;
63782;SDS011;49925;52.522;5.732;2022-12-29T14:17:38;39.15;;;4.78;;
63782;SDS011;49925;52.522;5.732;2022-12-29T14:20:17;41.80;;;4.45;;
63782;SDS011;49925;52.522;5.732;2022-12-29T14:23:01;28.63;;;3.53;;
63782;SDS011;49925;52.522;5.732;2022-12-29T14:26:00;40.97;;;4.68;;
63782;SDS011;49925;52.522;5.732;2022-12-29T14:28:45;31.05;;;3.80;;
63782;SDS011;49925;52.522;5.732;2022-12-29T14:39:38;33.13;;;3.47;;
63782;SDS011;49925;52.522;5.732;2022-12-29T14:44:48;42.22;;;4.40;;
63782;SDS011;49925;52.522;5.732;2022-12-29T14:50:14;31.08;;;4.05;;
63782;SDS011;49925;52.522;5.732;2022-12-29T14:55:32;40.15;;;3.85;;
63782;SDS011;49925;52.522;5.732;2022-12-29T14:58:16;44.22;;;6.10;;
63782;SDS011;49925;52.522;5.732;2022-12-29T15:00:52;29.60;;;3.75;;
63782;SDS011;49925;52.522;5.732;2022-12-29T15:03:43;43.10;;;4.88;;
63782;SDS011;49925;52.522;5.732;2022-12-29T15:06:12;24.48;;;4.22;;
63782;SDS011;49925;52.522;5.732;2022-12-29T15:08:47;36.35;;;4.65;;
63782;SDS011;49925;52.522;5.732;2022-12-29T15:14:25;35.88;;;4.93;;
63782;SDS011;49925;52.522;5.732;2022-12-29T15:16:57;20.10;;;4.00;;
63782;SDS011;49925;52.522;5.732;2022-12-29T15:19:25;21.60;;;4.07;;
63782;SDS011;49925;52.522;5.732;2022-12-29T15:21:53;30.17;;;4.53;;
63782;SDS011;49925;52.522;5.732;2022-12-29T15:24:21;30.45;;;4.20;;
63782;SDS011;49925;52.522;5.732;2022-12-29T15:26:50;19.77;;;4.20;;
63782;SDS011;49925;52.522;5.732;2022-12-29T15:29:38;28.73;;;4.53;;
63782;SDS011;49925;52.522;5.732;2022-12-29T15:34:51;23.95;;;3.25;;
63782;SDS011;49925;52.522;5.732;2022-12-29T15:37:22;18.30;;;4.10;;
63782;SDS011;49925;52.522;5.732;2022-12-29T15:39:53;25.38;;;3.70;;
63782;SDS011;49925;52.522;5.732;2022-12-29T15:45:30;26.25;;;3.70;;
63782;SDS011;49925;52.522;5.732;2022-12-29T15:48:00;13.98;;;3.08;;
63782;SDS011;49925;52.522;5.732;2022-12-29T15:50:34;12.38;;;2.67;;
63782;SDS011;49925;52.522;5.732;2022-12-29T15:53:02;19.83;;;3.25;;
63782;SDS011;49925;52.522;5.732;2022-12-29T15:55:34;30.27;;;3.03;;
63782;SDS011;49925;52.522;5.732;2022-12-29T15:58:04;20.65;;;4.28;;
63782;SDS011;49925;52.522;5.732;2022-12-29T16:00:49;22.38;;;3.25;;
63782;SDS011;49925;52.522;5.732;2022-12-29T16:03:29;23.95;;;3.40;;
63782;SDS011;49925;52.522;5.732;2022-12-29T16:06:09;14.32;;;4.30;;
63782;SDS011;49925;52.522;5.732;2022-12-29T16:09:06;27.40;;;3.70;;
63782;SDS011;49925;52.522;5.732;2022-12-29T16:11:38;26.52;;;5.35;;
63782;SDS011;49925;52.522;5.732;2022-12-29T16:14:08;29.98;;;5.10;;
63782;SDS011;49925;52.522;5.732;2022-12-29T16:16:43;27.50;;;5.85;;
63782;SDS011;49925;52.522;5.732;2022-12-29T19:18:26;30.83;;;4.13;;
63782;SDS011;49925;52.522;5.732;2022-12-29T19:21:13;30.27;;;4.90;;
63782;SDS011;49925;52.522;5.732;2022-12-29T19:23:40;29.23;;;4.75;;
63782;SDS011;49925;52.522;5.732;2022-12-29T19:26:14;31.45;;;3.90;;
63782;SDS011;49925;52.522;5.732;2022-12-29T19:28:59;27.95;;;6.25;;
63782;SDS011;49925;52.522;5.732;2022-12-29T19:31:27;35.60;;;6.70;;
63782;SDS011;49925;52.522;5.732;2022-12-29T19:33:54;39.45;;;6.70;;
63782;SDS011;49925;52.522;5.732;2022-12-29T19:36:22;33.58;;;5.07;;
63782;SDS011;49925;52.522;5.732;2022-12-29T19:38:49;32.47;;;4.65;;
63782;SDS011;49925;52.522;5.732;2022-12-29T19:41:16;31.40;;;4.78;;
63782;SDS011;49925;52.522;5.732;2022-12-29T19:43:44;48.00;;;6.50;;
63782;SDS011;49925;52.522;5.732;2022-12-29T21:45:16;45.95;;;5.43;;
63782;SDS011;49925;52.522;5.732;2022-12-29T21:47:53;49.35;;;5.68;;
63782;SDS011;49925;52.522;5.732;2022-12-29T21:50:47;55.75;;;5.82;;
63782;SDS011;49925;52.522;5.732;2022-12-29T21:53:38;40.72;;;5.82;;
63782;SDS011;49925;52.522;5.732;2022-12-29T21:56:15;54.70;;;5.50;;
63782;SDS011;49925;52.522;5.732;2022-12-29T21:58:47;46.93;;;5.43;;
63782;SDS011;49925;52.522;5.732;2022-12-29T22:01:35;42.10;;;5.45;;
63782;SDS011;49925;52.522;5.732;2022-12-29T22:04:23;54.50;;;5.75;;
63782;SDS011;49925;52.522;5.732;2022-12-29T22:07:10;57.70;;;5.45;;
63782;SDS011;49925;52.522;5.732;2022-12-29T22:09:56;41.00;;;5.60;;
63782;SDS011;49925;52.522;5.732;2022-12-29T22:12:42;52.70;;;5.72;;
63782;SDS011;49925;52.522;5.732;2022-12-29T22:15:26;53.75;;;5.80;;
63782;SDS011;49925;52.522;5.732;2022-12-29T22:17:55;56.83;;;5.53;;
63782;SDS011;49925;52.522;5.732;2022-12-29T22:20:24;38.17;;;5.53;;
63782;SDS011;49925;52.522;5.732;2022-12-29T22:22:54;38.58;;;5.90;;
63782;SDS011;49925;52.522;5.732;2022-12-29T22:25:22;54.90;;;6.00;;
63782;SDS011;49925;52.522;5.732;2022-12-29T22:27:49;52.53;;;6.82;;
63782;SDS011;49925;52.522;5.732;2022-12-29T22:30:24;53.05;;;6.25;;
63782;SDS011;49925;52.522;5.732;2022-12-29T22:32:57;47.60;;;6.03;;
63782;SDS011;49925;52.522;5.732;2022-12-29T22:37:53;45.50;;;5.53;;
63782;SDS011;49925;52.522;5.732;2022-12-29T22:40:20;62.25;;;6.47;;
63782;SDS011;49925;52.522;5.732;2022-12-29T22:42:48;47.17;;;5.90;;
63782;SDS011;49925;52.522;5.732;2022-12-29T22:45:15;50.70;;;5.50;;
63782;SDS011;49925;52.522;5.732;2022-12-29T22:47:42;41.63;;;5.10;;
63782;SDS011;49925;52.522;5.732;2022-12-29T22:50:09;48.92;;;6.60;;
63782;SDS011;49925;52.522;5.732;2022-12-29T22:52:36;56.10;;;6.93;;
63782;SDS011;49925;52.522;5.732;2022-12-29T22:55:03;51.95;;;6.32;;
63782;SDS011;49925;52.522;5.732;2022-12-29T22:57:34;52.25;;;6.55;;
63782;SDS011;49925;52.522;5.732;2022-12-29T23:07:32;53.95;;;6.35;;
63782;SDS011;49925;52.522;5.732;2022-12-29T23:10:01;53.28;;;5.82;;
63782;SDS011;49925;52.522;5.732;2022-12-29T23:12:29;41.60;;;5.80;;
63782;SDS011;49925;52.522;5.732;2022-12-29T23:14:57;61.88;;;5.70;;
63782;SDS011;49925;52.522;5.732;2022-12-29T23:17:25;58.28;;;6.80;;
63782;SDS011;49925;52.522;5.732;2022-12-29T23:19:52;45.00;;;5.60;;
63782;SDS011;49925;52.522;5.732;2022-12-29T23:22:19;41.78;;;6.05;;
63782;SDS011;49925;52.522;5.732;2022-12-29T23:24:48;51.28;;;6.47;;
63782;SDS011;49925;52.522;5.732;2022-12-29T23:27:15;43.63;;;5.95;;
63782;SDS011;49925;52.522;5.732;2022-12-29T23:29:44;64.45;;;6.03;;
63782;SDS011;49925;52.522;5.732;2022-12-29T23:32:11;43.20;;;5.72;;
63782;SDS011;49925;52.522;5.732;2022-12-29T23:34:38;43.65;;;6.45;;
63782;SDS011;49925;52.522;5.732;2022-12-29T23:37:05;45.35;;;6.05;;
63782;SDS011;49925;52.522;5.732;2022-12-29T23:39:32;55.00;;;5.45;;
63782;SDS011;49925;52.522;5.732;2022-12-29T23:41:59;59.72;;;6.65;;
63782;SDS011;49925;52.522;5.732;2022-12-29T23:44:26;43.08;;;6.25;;
63782;SDS011;49925;52.522;5.732;2022-12-29T23:46:53;52.15;;;5.88;;
63782;SDS011;49925;52.522;5.732;2022-12-29T23:49:21;60.00;;;6.05;;
63782;SDS011;49925;52.522;5.732;2022-12-29T23:51:48;61.08;;;5.55;;
63782;SDS011;49925;52.522;5.732;2022-12-29T23:54:15;46.17;;;5.18;;
63782;SDS011;49925;52.522;5.732;2022-12-29T23:56:44;33.75;;;5.22;;
63782;SDS011;49925;52.522;5.732;2022-12-29T23:59:11;59.75;;;6.43;;
